createdAt,value
2022-09-26T00:01:26.665Z,11.60
2022-09-26T00:03:55.893Z,12.18
2022-09-26T00:06:23.138Z,13.77
2022-09-26T00:08:50.985Z,13.27
2022-09-26T00:11:20.868Z,11.85
2022-09-26T00:16:15.524Z,11.68
2022-09-26T00:18:42.307Z,11.82
2022-09-26T00:21:14.318Z,11.90
2022-09-26T00:23:44.615Z,12.45
2022-09-26T00:26:12.870Z,12.10
2022-09-26T00:28:40.177Z,10.77
2022-09-26T00:31:13.741Z,11.43
2022-09-26T00:33:40.933Z,10.50
2022-09-26T00:36:08.085Z,10.65
2022-09-26T00:38:35.343Z,9.93
2022-09-26T00:41:02.417Z,10.45
2022-09-26T00:43:32.494Z,10.02
2022-09-26T00:46:05.190Z,10.25
2022-09-26T00:48:34.117Z,9.30
2022-09-26T00:51:01.452Z,11.15
2022-09-26T00:53:36.063Z,12.70
2022-09-26T00:56:09.662Z,8.73
2022-09-26T00:58:45.081Z,8.85
2022-09-26T01:01:12.274Z,10.30
2022-09-26T01:03:41.176Z,9.43
2022-09-26T01:06:07.989Z,11.73
2022-09-26T01:08:42.834Z,11.88
2022-09-26T01:11:16.161Z,11.90
2022-09-26T01:13:45.504Z,8.88
2022-09-26T01:16:12.362Z,7.78
2022-09-26T01:18:39.742Z,8.30
2022-09-26T01:21:30.748Z,9.10
2022-09-26T01:24:50.774Z,10.50
2022-09-26T01:27:51.932Z,11.95
2022-09-26T01:30:23.374Z,11.15
2022-09-26T01:33:09.945Z,13.38
2022-09-26T01:36:03.036Z,11.73
2022-09-26T01:38:49.710Z,12.73
2022-09-26T01:41:39.233Z,14.80
2022-09-26T01:44:24.610Z,14.00
2022-09-26T01:46:56.268Z,14.82
2022-09-26T01:49:28.544Z,14.57
2022-09-26T01:52:10.506Z,11.73
2022-09-26T01:54:46.958Z,12.45
2022-09-26T01:57:23.617Z,13.07
2022-09-26T01:59:58.879Z,12.65
2022-09-26T02:02:31.419Z,11.45
2022-09-26T02:05:06.124Z,10.35
2022-09-26T02:07:50.267Z,9.85
2022-09-26T02:10:23.097Z,12.55
2022-09-26T02:12:56.179Z,12.35
2022-09-26T02:15:26.322Z,11.38
2022-09-26T02:18:18.571Z,11.02
2022-09-26T02:20:51.818Z,14.05
2022-09-26T02:23:18.659Z,14.68
2022-09-26T02:25:45.453Z,13.93
2022-09-26T02:28:12.799Z,12.85
2022-09-26T02:30:42.085Z,11.75
2022-09-26T02:33:09.105Z,12.80
2022-09-26T02:35:54.248Z,10.70
2022-09-26T02:38:23.404Z,11.65
2022-09-26T02:41:20.057Z,16.45
2022-09-26T02:44:20.977Z,11.77
2022-09-26T02:47:12.573Z,15.52
2022-09-26T02:49:49.865Z,12.77
2022-09-26T02:52:44.617Z,14.60
2022-09-26T02:55:29.618Z,15.43
2022-09-26T02:58:07.117Z,13.50
2022-09-26T03:00:46.138Z,15.07
2022-09-26T03:03:37.890Z,11.68
2022-09-26T03:06:08.648Z,13.73
2022-09-26T03:08:39.365Z,14.30
2022-09-26T03:11:10.814Z,9.75
2022-09-26T03:13:40.597Z,17.58
2022-09-26T03:16:09.769Z,12.63
2022-09-26T03:18:54.557Z,14.15
2022-09-26T03:21:23.571Z,13.63
2022-09-26T03:23:51.083Z,12.15
2022-09-26T03:26:22.293Z,10.45
2022-09-26T03:28:56.301Z,10.77
2022-09-26T03:31:25.536Z,11.82
2022-09-26T03:33:59.027Z,13.00
2022-09-26T03:36:27.836Z,9.77
2022-09-26T03:38:54.689Z,9.48
2022-09-26T03:41:35.775Z,10.27
2022-09-26T03:44:11.249Z,9.27
2022-09-26T03:47:01.005Z,12.75
2022-09-26T03:49:28.770Z,11.80
2022-09-26T03:51:55.459Z,10.55
2022-09-26T03:54:22.591Z,15.73
2022-09-26T03:56:49.433Z,13.15
2022-09-26T03:59:16.963Z,15.43
2022-09-26T04:01:45.089Z,14.90
2022-09-26T04:04:15.293Z,17.40
2022-09-26T04:06:44.972Z,22.80
2022-09-26T04:09:17.056Z,13.52
2022-09-26T04:11:48.105Z,12.35
2022-09-26T04:14:14.899Z,19.55
2022-09-26T04:16:43.147Z,18.08
2022-09-26T04:19:22.998Z,20.00
2022-09-26T04:21:52.123Z,18.20
2022-09-26T04:24:21.428Z,18.47
2022-09-26T04:26:48.398Z,15.95
2022-09-26T04:29:15.575Z,17.67
2022-09-26T04:31:53.808Z,12.85
2022-09-26T04:34:27.514Z,17.48
2022-09-26T04:36:55.137Z,16.85
2022-09-26T04:39:22.279Z,16.17
2022-09-26T04:41:49.017Z,14.25
2022-09-26T04:44:15.754Z,15.32
2022-09-26T04:46:42.439Z,12.25
2022-09-26T04:49:11.342Z,13.00
2022-09-26T04:51:38.082Z,15.88
2022-09-26T04:54:05.192Z,14.40
2022-09-26T04:56:38.146Z,15.68
2022-09-26T04:59:06.927Z,14.63
2022-09-26T05:01:43.443Z,20.40
2022-09-26T05:04:18.108Z,15.45
2022-09-26T05:06:45.005Z,13.70
2022-09-26T05:09:24.380Z,15.10
2022-09-26T05:11:56.597Z,11.77
2022-09-26T05:14:23.456Z,11.93
2022-09-26T05:16:50.386Z,11.65
2022-09-26T05:19:17.936Z,12.50
2022-09-26T05:22:05.389Z,10.85
2022-09-26T05:24:50.678Z,16.83
2022-09-26T05:27:19.283Z,14.95
2022-09-26T05:29:45.942Z,15.98
2022-09-26T05:32:13.912Z,13.57
2022-09-26T05:34:40.812Z,13.68
2022-09-26T05:37:13.872Z,13.10
2022-09-26T05:39:59.818Z,12.93
2022-09-26T05:42:27.295Z,11.48
2022-09-26T05:44:55.225Z,13.90
2022-09-26T05:47:22.015Z,12.10
2022-09-26T05:49:48.961Z,12.13
2022-09-26T05:52:18.911Z,12.32
2022-09-26T05:54:45.676Z,10.15
2022-09-26T05:57:31.081Z,9.77
2022-09-26T05:59:58.157Z,8.32
2022-09-26T06:02:25.044Z,9.15
2022-09-26T06:05:27.457Z,9.75
2022-09-26T06:07:54.170Z,10.57
2022-09-26T06:10:39.238Z,11.48
2022-09-26T06:13:07.765Z,12.68
2022-09-26T06:15:50.037Z,10.73
2022-09-26T06:18:17.056Z,11.02
2022-09-26T06:20:43.938Z,10.43
2022-09-26T06:23:11.978Z,9.77
2022-09-26T06:25:39.542Z,10.60
2022-09-26T06:28:07.037Z,12.13
2022-09-26T06:30:36.069Z,10.63
2022-09-26T06:33:11.331Z,10.93
2022-09-26T06:36:02.119Z,14.63
2022-09-26T06:38:36.862Z,11.93
2022-09-26T06:41:07.541Z,12.05
2022-09-26T06:43:34.743Z,10.73
2022-09-26T06:46:21.819Z,14.23
2022-09-26T06:49:08.764Z,12.93
2022-09-26T06:51:55.504Z,15.80
2022-09-26T06:54:22.194Z,13.70
2022-09-26T06:56:48.892Z,13.20
2022-09-26T06:59:16.976Z,14.35
2022-09-26T07:01:56.966Z,14.70
2022-09-26T07:04:40.313Z,12.30
2022-09-26T07:07:16.607Z,12.43
2022-09-26T07:09:43.589Z,12.23
2022-09-26T07:12:37.681Z,13.02
2022-09-26T07:15:05.006Z,13.52
2022-09-26T07:17:32.565Z,13.70
2022-09-26T07:20:25.526Z,13.45
2022-09-26T07:22:54.982Z,12.15
2022-09-26T07:25:21.949Z,10.73
2022-09-26T07:27:52.599Z,13.88
2022-09-26T07:30:23.577Z,13.07
2022-09-26T07:33:03.703Z,11.55
2022-09-26T07:35:46.968Z,10.82
2022-09-26T07:38:13.764Z,8.95
2022-09-26T07:40:43.277Z,8.32
2022-09-26T07:43:30.616Z,7.68
2022-09-26T07:46:19.067Z,8.15
2022-09-26T07:49:08.125Z,8.53
2022-09-26T07:52:00.843Z,9.50
2022-09-26T07:54:53.708Z,8.70
2022-09-26T07:57:38.815Z,8.43
2022-09-26T08:00:21.892Z,7.82
2022-09-26T08:05:42.826Z,6.38
2022-09-26T08:08:09.978Z,6.57
2022-09-26T08:10:59.063Z,6.25
2022-09-26T08:13:33.059Z,6.40
2022-09-26T08:16:23.577Z,5.28
2022-09-26T08:21:22.652Z,6.55
2022-09-26T08:23:53.594Z,6.70
2022-09-26T08:26:44.441Z,5.40
2022-09-26T08:29:16.916Z,6.88
2022-09-26T08:31:46.405Z,7.45
2022-09-26T08:34:13.332Z,8.43
2022-09-26T08:36:41.780Z,8.52
2022-09-26T08:39:11.391Z,8.00
2022-09-26T08:42:08.343Z,7.55
2022-09-26T08:45:37.442Z,6.25
2022-09-26T08:48:51.995Z,6.07
2022-09-26T08:51:25.469Z,5.38
2022-09-26T08:54:01.549Z,5.80
2022-09-26T08:56:36.849Z,4.55
2022-09-26T08:59:06.566Z,5.55
2022-09-26T09:01:41.757Z,5.15
2022-09-26T09:06:43.914Z,4.75
2022-09-26T09:09:16.196Z,3.83
2022-09-26T09:12:32.368Z,6.45
2022-09-26T09:15:43.101Z,4.65
2022-09-26T09:18:50.096Z,4.53
2022-09-26T09:22:03.786Z,4.18
2022-09-26T09:25:05.880Z,4.65
2022-09-26T09:28:08.713Z,3.97
2022-09-26T09:30:45.927Z,6.45
2022-09-26T09:33:41.821Z,3.85
2022-09-26T09:36:34.457Z,4.97
2022-09-26T09:39:31.204Z,5.65
2022-09-26T09:42:36.444Z,5.13
2022-09-26T09:45:15.915Z,5.47
2022-09-26T09:47:44.144Z,4.90
2022-09-26T09:50:35.379Z,6.57
2022-09-26T09:53:11.553Z,7.28
2022-09-26T09:55:43.012Z,4.68
2022-09-26T09:58:16.540Z,5.60
2022-09-26T10:00:51.660Z,4.75
2022-09-26T10:03:26.875Z,5.72
2022-09-26T10:05:59.758Z,5.38
2022-09-26T10:08:40.425Z,3.95
2022-09-26T10:11:52.498Z,4.28
2022-09-26T10:15:02.362Z,4.88
2022-09-26T10:18:23.991Z,4.15
2022-09-26T10:21:06.782Z,5.75
2022-09-26T10:23:44.877Z,4.45
2022-09-26T10:26:31.071Z,4.07
2022-09-26T10:29:08.602Z,3.75
2022-09-26T10:31:42.590Z,3.30
2022-09-26T10:34:28.077Z,3.42
2022-09-26T10:36:56.159Z,3.65
2022-09-26T10:39:49.227Z,3.67
2022-09-26T10:42:22.096Z,4.28
2022-09-26T10:44:57.644Z,3.88
2022-09-26T10:47:27.175Z,4.28
2022-09-26T10:50:06.533Z,3.50
2022-09-26T10:53:10.705Z,3.28
2022-09-26T10:55:44.133Z,3.47
2022-09-26T10:58:26.093Z,5.82
2022-09-26T11:00:55.846Z,4.65
2022-09-26T11:03:43.310Z,3.85
2022-09-26T11:06:28.668Z,3.05
2022-09-26T11:09:04.584Z,3.53
2022-09-26T11:11:51.312Z,3.50
2022-09-26T11:14:29.098Z,4.30
2022-09-26T11:17:11.580Z,4.68
2022-09-26T11:19:53.781Z,4.63
2022-09-26T11:22:30.525Z,3.58
2022-09-26T11:25:06.215Z,4.78
2022-09-26T11:27:47.792Z,3.67
2022-09-26T11:30:23.020Z,3.88
2022-09-26T11:33:05.532Z,3.50
2022-09-26T11:36:28.795Z,3.75
2022-09-26T11:39:05.397Z,4.03
2022-09-26T11:41:54.203Z,6.20
2022-09-26T11:44:45.034Z,4.05
2022-09-26T11:47:39.656Z,3.90
2022-09-26T11:50:21.298Z,5.00
2022-09-26T11:53:35.846Z,4.95
2022-09-26T11:56:30.160Z,5.82
2022-09-26T11:59:15.685Z,5.85
2022-09-26T12:02:02.022Z,6.50
2022-09-26T12:04:55.071Z,4.57
2022-09-26T12:07:33.932Z,4.00
2022-09-26T12:10:21.530Z,4.67
2022-09-26T12:13:17.301Z,4.95
2022-09-26T12:16:00.534Z,3.60
2022-09-26T12:18:54.650Z,4.05
2022-09-26T12:22:06.950Z,4.10
2022-09-26T12:24:45.581Z,5.13
2022-09-26T12:27:34.235Z,4.00
2022-09-26T12:30:06.164Z,4.57
2022-09-26T12:33:02.153Z,3.78
2022-09-26T12:35:43.956Z,5.43
2022-09-26T12:38:33.645Z,4.32
2022-09-26T12:44:09.670Z,4.00
2022-09-26T12:47:01.144Z,4.90
2022-09-26T12:49:45.040Z,3.63
2022-09-26T12:52:33.513Z,4.43
2022-09-26T12:55:24.802Z,3.83
2022-09-26T12:58:25.005Z,3.20
2022-09-26T13:01:32.485Z,4.70
2022-09-26T13:04:27.394Z,4.47
2022-09-26T13:07:20.489Z,5.68
2022-09-26T13:10:12.587Z,4.00
2022-09-26T13:12:48.759Z,4.50
2022-09-26T13:15:26.575Z,3.55
2022-09-26T13:18:22.991Z,3.90
2022-09-26T13:21:00.195Z,5.03
2022-09-26T13:23:41.890Z,4.13
2022-09-26T13:26:33.041Z,4.10
2022-09-26T13:29:23.510Z,4.25
2022-09-26T13:32:05.395Z,4.47
2022-09-26T13:34:45.193Z,3.22
2022-09-26T13:37:28.980Z,5.47
2022-09-26T13:40:24.582Z,4.05
2022-09-26T13:43:07.927Z,4.35
2022-09-26T13:46:17.909Z,3.85
2022-09-26T13:49:00.993Z,4.00
2022-09-26T13:51:47.051Z,3.83
2022-09-26T13:54:23.613Z,4.30
2022-09-26T13:56:50.580Z,4.15
2022-09-26T13:59:18.093Z,4.35
2022-09-26T14:02:24.688Z,3.55
2022-09-26T14:05:13.950Z,5.35
2022-09-26T14:07:58.998Z,3.72
2022-09-26T14:10:32.186Z,3.75
2022-09-26T14:13:06.034Z,4.45
2022-09-26T14:15:51.013Z,4.55
2022-09-26T14:18:26.930Z,5.05
2022-09-26T14:21:13.207Z,5.45
2022-09-26T14:23:49.497Z,3.63
2022-09-26T14:26:43.451Z,3.03
2022-09-26T14:29:33.365Z,5.07
2022-09-26T14:32:05.331Z,3.80
2022-09-26T14:34:43.747Z,4.00
2022-09-26T14:37:25.598Z,3.50
2022-09-26T14:40:00.386Z,3.83
2022-09-26T14:42:43.682Z,4.43
2022-09-26T14:45:16.632Z,5.13
2022-09-26T14:47:48.555Z,4.13
2022-09-26T14:50:20.535Z,4.22
2022-09-26T14:52:52.924Z,4.13
2022-09-26T14:55:20.147Z,4.57
2022-09-26T14:57:48.473Z,4.97
2022-09-26T15:00:36.020Z,4.57
2022-09-26T15:03:13.235Z,4.07
2022-09-26T15:05:42.108Z,3.78
2022-09-26T15:08:30.070Z,3.33
2022-09-26T15:10:58.942Z,4.88
2022-09-26T15:13:37.782Z,4.00
2022-09-26T15:16:23.320Z,3.57
2022-09-26T15:18:56.611Z,4.38
2022-09-26T15:21:44.706Z,4.45
2022-09-26T15:24:44.656Z,3.47
2022-09-26T15:27:27.431Z,5.95
2022-09-26T15:30:03.778Z,2.85
2022-09-26T15:32:33.481Z,3.53
2022-09-26T15:35:02.308Z,3.38
2022-09-26T15:37:32.298Z,4.27
2022-09-26T15:40:19.055Z,6.72
2022-09-26T15:42:58.349Z,3.70
2022-09-26T15:45:35.706Z,3.92
2022-09-26T15:48:25.402Z,3.53
2022-09-26T15:53:26.000Z,6.25
2022-09-26T15:56:03.670Z,3.80
2022-09-26T15:58:39.733Z,3.55
2022-09-26T16:01:08.540Z,4.97
2022-09-26T16:03:45.880Z,3.97
2022-09-26T16:06:27.590Z,3.78
2022-09-26T16:09:00.603Z,4.47
2022-09-26T16:11:28.606Z,6.13
2022-09-26T16:13:56.695Z,4.40
2022-09-26T16:16:32.010Z,12.68
2022-09-26T16:19:03.041Z,26.35
2022-09-26T16:21:34.140Z,21.05
2022-09-26T16:24:26.527Z,21.90
2022-09-26T16:26:55.314Z,7.82
2022-09-26T16:29:34.742Z,10.05
2022-09-26T16:32:05.521Z,5.93
2022-09-26T16:34:32.480Z,6.45
2022-09-26T16:36:59.523Z,5.95
2022-09-26T16:39:28.903Z,6.32
2022-09-26T16:42:14.996Z,7.10
2022-09-26T16:44:50.049Z,7.40
2022-09-26T16:47:38.166Z,9.90
2022-09-26T16:50:27.750Z,17.73
2022-09-26T16:52:55.525Z,11.88
2022-09-26T16:55:23.359Z,7.78
2022-09-26T16:57:55.968Z,9.27
2022-09-26T17:00:51.339Z,8.55
2022-09-26T17:03:27.187Z,8.45
2022-09-26T17:05:55.813Z,7.68
2022-09-26T17:08:23.852Z,5.97
2022-09-26T17:10:50.972Z,7.10
2022-09-26T17:13:23.925Z,5.85
2022-09-26T17:15:55.564Z,8.98
2022-09-26T17:18:29.604Z,7.13
2022-09-26T17:20:59.263Z,6.95
2022-09-26T17:23:40.040Z,6.05
2022-09-26T17:26:12.400Z,5.93
2022-09-26T17:28:42.745Z,7.38
2022-09-26T17:31:20.048Z,8.60
2022-09-26T17:33:52.623Z,6.43
2022-09-26T17:36:25.596Z,9.98
2022-09-26T17:38:52.311Z,7.85
2022-09-26T17:41:18.974Z,8.52
2022-09-26T17:43:45.903Z,8.65
2022-09-26T17:46:15.886Z,7.78
2022-09-26T17:48:43.818Z,7.07
2022-09-26T17:51:14.624Z,8.48
2022-09-26T17:53:50.187Z,8.43
2022-09-26T17:56:18.264Z,7.65
2022-09-26T17:58:46.991Z,9.13
2022-09-26T18:01:25.917Z,7.55
2022-09-26T18:03:57.526Z,6.63
2022-09-26T18:06:31.713Z,7.80
2022-09-26T18:09:05.298Z,8.73
2022-09-26T18:11:34.453Z,6.07
2022-09-26T18:14:04.525Z,7.50
2022-09-26T18:16:31.377Z,7.65
2022-09-26T18:18:58.912Z,9.25
2022-09-26T18:21:27.258Z,8.32
2022-09-26T18:24:01.803Z,9.13
2022-09-26T18:26:38.067Z,8.55
2022-09-26T18:29:06.692Z,9.38
2022-09-26T18:31:38.485Z,9.30
2022-09-26T18:34:06.431Z,8.75
2022-09-26T18:36:33.660Z,8.00
2022-09-26T18:39:00.631Z,10.23
2022-09-26T18:41:28.643Z,10.55
2022-09-26T18:44:00.278Z,11.13
2022-09-26T18:46:29.204Z,9.48
2022-09-26T18:48:58.859Z,13.05
2022-09-26T18:51:27.334Z,8.63
2022-09-26T18:53:54.225Z,9.52
2022-09-26T18:56:39.459Z,11.43
2022-09-26T18:59:09.359Z,11.70
2022-09-26T19:04:10.212Z,10.65
2022-09-26T19:06:41.662Z,11.50
2022-09-26T19:09:14.110Z,15.30
2022-09-26T19:11:41.888Z,13.32
2022-09-26T19:14:17.106Z,12.48
2022-09-26T19:16:45.386Z,12.40
2022-09-26T19:19:12.802Z,9.75
2022-09-26T19:21:44.646Z,10.30
2022-09-26T19:24:34.294Z,9.60
2022-09-26T19:27:06.572Z,9.20
2022-09-26T19:29:48.741Z,12.43
2022-09-26T19:32:32.787Z,9.77
2022-09-26T19:35:01.924Z,9.70
2022-09-26T19:37:28.748Z,11.73
2022-09-26T19:39:57.727Z,12.27
2022-09-26T19:42:26.176Z,10.50
2022-09-26T19:44:52.948Z,14.63
2022-09-26T19:47:22.768Z,11.82
2022-09-26T19:52:19.944Z,16.30
2022-09-26T19:54:47.073Z,10.88
2022-09-26T19:57:19.725Z,12.55
2022-09-26T19:59:46.696Z,13.75
2022-09-26T20:02:22.699Z,13.65
2022-09-26T20:04:50.971Z,12.98
2022-09-26T20:07:19.589Z,15.02
2022-09-26T20:09:47.393Z,12.18
2022-09-26T20:12:14.149Z,14.30
2022-09-26T20:14:41.064Z,13.38
2022-09-26T20:17:26.948Z,11.50
2022-09-26T20:19:58.690Z,13.65
2022-09-26T20:22:26.157Z,11.20
2022-09-26T20:24:57.123Z,12.32
2022-09-26T20:27:27.964Z,12.52
2022-09-26T20:30:14.540Z,10.57
2022-09-26T20:32:42.302Z,12.88
2022-09-26T20:35:15.017Z,11.52
2022-09-26T20:37:42.332Z,11.02
2022-09-26T20:40:19.504Z,10.15
2022-09-26T20:42:50.683Z,11.88
2022-09-26T20:45:32.010Z,10.52
2022-09-26T20:47:59.680Z,9.15
2022-09-26T20:50:34.005Z,12.07
2022-09-26T20:53:01.599Z,11.52
2022-09-26T20:55:28.183Z,9.13
2022-09-26T20:57:54.803Z,9.95
2022-09-26T21:00:21.661Z,12.38
2022-09-26T21:02:52.335Z,10.32
2022-09-26T21:05:22.889Z,11.48
2022-09-26T21:07:54.184Z,12.57
2022-09-26T21:10:22.130Z,10.52
2022-09-26T21:12:48.875Z,9.88
2022-09-26T21:15:15.621Z,11.43
2022-09-26T21:17:42.490Z,11.50
2022-09-26T21:20:29.540Z,13.38
2022-09-26T21:23:28.470Z,10.05
2022-09-26T21:25:55.255Z,9.80
2022-09-26T21:28:26.953Z,10.68
2022-09-26T21:31:06.228Z,12.95
2022-09-26T21:33:33.105Z,12.45
2022-09-26T21:35:59.756Z,11.98
2022-09-26T21:38:27.320Z,13.15
2022-09-26T21:40:59.601Z,11.00
2022-09-26T21:43:29.227Z,11.45
2022-09-26T21:45:55.966Z,11.07
2022-09-26T21:48:22.763Z,10.68
2022-09-26T21:50:57.699Z,9.48
2022-09-26T21:53:33.603Z,11.60
2022-09-26T21:56:07.340Z,11.68
2022-09-26T21:58:37.940Z,9.60
2022-09-26T22:01:04.815Z,10.52
2022-09-26T22:03:32.151Z,10.05
2022-09-26T22:06:01.364Z,10.02
2022-09-26T22:08:31.061Z,10.75
2022-09-26T22:10:57.873Z,11.73
2022-09-26T22:13:24.707Z,9.50
2022-09-26T22:15:51.333Z,9.93
2022-09-26T22:18:18.023Z,8.85
2022-09-26T22:20:44.694Z,8.88
2022-09-26T22:23:11.654Z,9.88
2022-09-26T22:25:42.662Z,9.70
2022-09-26T22:28:09.627Z,11.07
2022-09-26T22:30:39.406Z,9.23
2022-09-26T22:35:32.653Z,13.32
2022-09-26T22:37:59.345Z,10.38
2022-09-26T22:40:26.097Z,8.90
2022-09-26T22:42:52.891Z,8.48
2022-09-26T22:45:20.055Z,10.20
2022-09-26T22:47:46.819Z,9.60
2022-09-26T22:50:13.457Z,9.60
2022-09-26T22:52:40.349Z,9.18
2022-09-26T22:55:07.857Z,9.05
2022-09-26T22:57:34.552Z,8.38
2022-09-26T23:00:01.918Z,8.65
2022-09-26T23:02:28.744Z,9.15
2022-09-26T23:04:55.365Z,11.35
2022-09-26T23:07:22.385Z,8.15
2022-09-26T23:09:49.091Z,8.35
2022-09-26T23:12:16.134Z,9.93
2022-09-26T23:14:42.968Z,8.00
2022-09-26T23:17:10.054Z,8.05
2022-09-26T23:19:38.131Z,9.57
2022-09-26T23:22:04.891Z,8.32
2022-09-26T23:24:31.744Z,7.07
2022-09-26T23:26:59.126Z,8.32
2022-09-26T23:29:26.462Z,7.82
2022-09-26T23:31:53.385Z,8.55
2022-09-26T23:34:20.118Z,9.02
2022-09-26T23:36:46.861Z,8.50
2022-09-26T23:39:13.677Z,10.95
2022-09-26T23:41:40.428Z,10.43
2022-09-26T23:44:07.211Z,9.20
2022-09-26T23:46:34.071Z,7.93
2022-09-26T23:49:00.826Z,9.13
2022-09-26T23:51:27.448Z,8.65
2022-09-26T23:53:55.225Z,11.65
2022-09-26T23:56:22.026Z,12.15
2022-09-26T23:58:49.428Z,10.82
